Caledon, Canada
Current Conditions -  °F | °C
As of 9:00 PM on Sunday 25 Jan 2015 (Local Time) from CYYZ Reporting Station
Broken Clouds Broken Clouds  
Wind Chill: -6°   Ceiling: 21000
Heat Index: 10°   Visibility: 15mi
Dew Point:   Wind: 15mph
Humidity: 62%   Direction: 10°N
Pressure: 30.06"   Gusts: NA
Location:  43.87°N, 80°W
Report Text: CYYZ 260200Z 01013KT 15SM BKN210 M12/M18 A3006 RMK CS7 SLP192
Loading
Personal Weather Stations






























Interactive Weather Map New forecast layout! Learn more

10-Day Weather Forecast

Advertisements
Track Severe Weather on mobile